Time;durP1;ratioP1;P1;durP2;ratioP2;P2;SDS_P1;SDS_P2;PMS_P1;PMS_P2;Temp;Humidity;BMP_temperature;BMP_pressure;BME280_temperature;BME280_humidity;BME280_pressure;Samples;Min_cycle;Max_cycle;Signal;HPM_P1;HPM_P2
2021/04/08 00:01:35;;;;;;;3.30;1.13;;;23.50;99.90;;;;;;5051955;28;20225;-70
2021/04/08 00:04:02;;;;;;;4.70;1.20;;;23.40;99.90;;;;;;5053171;28;20172;-70
2021/04/08 00:06:30;;;;;;;5.97;1.30;;;23.40;99.90;;;;;;5052312;28;20238;-70
2021/04/08 00:08:57;;;;;;;5.63;1.27;;;23.30;99.90;;;;;;5052997;28;20528;-70
2021/04/08 00:11:24;;;;;;;2.57;0.97;;;23.30;99.90;;;;;;5052671;28;20220;-71
2021/04/08 00:13:52;;;;;;;3.80;0.80;;;23.20;99.90;;;;;;5051566;28;20434;-70
2021/04/08 00:16:19;;;;;;;1.77;0.80;;;23.10;99.90;;;;;;5051897;28;20178;-70
2021/04/08 00:18:46;;;;;;;4.23;1.00;;;23.10;99.90;;;;;;5052839;28;20211;-71
2021/04/08 00:21:14;;;;;;;2.30;0.73;;;23.00;99.90;;;;;;5052473;28;20187;-70
2021/04/08 00:23:41;;;;;;;8.50;1.63;;;23.00;99.90;;;;;;5052701;28;20168;-70
2021/04/08 00:26:08;;;;;;;7.07;1.53;;;23.00;99.90;;;;;;5052743;28;20229;-70
2021/04/08 00:28:36;;;;;;;2.03;0.80;;;23.20;99.90;;;;;;5051736;28;20186;-71
2021/04/08 00:31:03;;;;;;;4.20;1.00;;;23.50;99.90;;;;;;5051619;28;20204;-70
2021/04/08 00:33:30;;;;;;;3.43;0.87;;;24.00;99.90;;;;;;5052291;28;20191;-70
2021/04/08 00:35:58;;;;;;;8.30;1.23;;;24.20;99.90;;;;;;5052530;28;20607;-70
2021/04/08 00:38:25;;;;;;;8.63;1.00;;;24.30;99.90;;;;;;5052245;28;20186;-71
2021/04/08 00:40:54;;;;;;;4.37;1.13;;;24.20;99.90;;;;;;5051236;28;20225;-70
2021/04/08 00:43:21;;;;;;;8.17;1.27;;;24.00;99.90;;;;;;5050188;28;20187;-71
2021/04/08 00:45:48;;;;;;;6.63;1.60;;;23.90;99.90;;;;;;5050682;28;20596;-70
2021/04/08 00:48:15;;;;;;;5.67;0.97;;;23.90;99.90;;;;;;5052224;28;20168;-69
2021/04/08 00:50:43;;;;;;;9.43;1.80;;;23.80;99.90;;;;;;5051902;28;20669;-69
2021/04/08 00:53:14;;;;;;;4.63;1.13;;;23.70;99.90;;;;;;5046090;28;20176;-69
2021/04/08 00:55:44;;;;;;;5.37;1.13;;;23.70;99.90;;;;;;5052542;28;20255;-70
2021/04/08 00:58:13;;;;;;;6.30;1.67;;;23.60;99.90;;;;;;5052205;28;20180;-70
2021/04/08 01:00:43;;;;;;;8.20;1.60;;;23.50;99.90;;;;;;5052150;28;20203;-70
2021/04/08 01:03:12;;;;;;;4.30;0.93;;;23.50;99.90;;;;;;5048990;28;20306;-70
2021/04/08 01:05:40;;;;;;;3.70;1.17;;;23.60;99.90;;;;;;5048512;28;20184;-70
2021/04/08 01:08:07;;;;;;;6.13;1.57;;;23.60;99.90;;;;;;5043173;28;20184;-70
2021/04/08 01:10:35;;;;;;;6.87;1.73;;;23.60;99.90;;;;;;5045302;28;20203;-70
2021/04/08 01:13:08;;;;;;;6.33;1.53;;;23.60;99.90;;;;;;5051602;28;20317;-71
2021/04/08 01:15:36;;;;;;;6.07;1.47;;;23.50;99.90;;;;;;5051290;28;20202;-70
2021/04/08 01:18:30;;;;;;;6.27;1.50;;;23.60;99.90;;;;;;5051485;28;20172;-70
2021/04/08 01:21:28;;;;;;;8.13;1.43;;;23.50;99.90;;;;;;5051646;28;20183;-68
2021/04/08 01:24:31;;;;;;;4.50;1.80;;;23.60;99.90;;;;;;5052636;28;20650;-71
2021/04/08 01:27:23;;;;;;;4.43;1.40;;;23.80;99.90;;;;;;5053321;28;20561;-72
2021/04/08 01:30:08;;;;;;;8.03;1.80;;;24.10;99.90;;;;;;5054986;28;20588;-70
2021/04/08 01:32:41;;;;;;;8.63;1.67;;;24.30;99.90;;;;;;5050856;28;20179;-71
2021/04/08 01:35:11;;;;;;;4.27;1.30;;;24.30;99.90;;;;;;5050442;28;20237;-71
2021/04/08 01:38:06;;;;;;;6.57;1.23;;;24.00;99.90;;;;;;5048383;28;20180;-72
2021/04/08 01:40:34;;;;;;;9.07;1.43;;;23.90;99.90;;;;;;5044028;28;20193;-70
2021/04/08 01:43:04;;;;;;;6.13;1.00;;;23.80;99.90;;;;;;5053573;28;20282;-71
2021/04/08 01:45:32;;;;;;;3.60;1.17;;;23.70;99.90;;;;;;5051511;28;20315;-69
2021/04/08 01:48:03;;;;;;;7.60;2.03;;;23.60;99.90;;;;;;5046537;28;20180;-71
2021/04/08 01:50:30;;;;;;;4.97;1.33;;;23.60;99.90;;;;;;5050933;28;20208;-71
2021/04/08 01:52:59;;;;;;;5.90;2.00;;;23.70;99.90;;;;;;5051100;28;20282;-71
2021/04/08 01:55:29;;;;;;;4.87;1.30;;;24.50;99.90;;;;;;5053525;28;20183;-71
2021/04/08 01:57:58;;;;;;;5.80;1.20;;;25.20;99.90;;;;;;5050567;28;20214;-69
2021/04/08 02:00:25;;;;;;;4.93;1.30;;;25.60;99.90;;;;;;5054067;28;20176;-71
2021/04/08 02:02:56;;;;;;;4.07;1.00;;;25.90;99.90;;;;;;5054871;28;20191;-72
2021/04/08 02:05:26;;;;;;;4.00;0.90;;;26.00;99.90;;;;;;5052698;28;20183;-71
2021/04/08 02:07:56;;;;;;;4.67;1.00;;;25.60;99.90;;;;;;5051039;28;20569;-71
2021/04/08 02:10:26;;;;;;;7.03;1.30;;;25.20;99.90;;;;;;5053224;28;20681;-70
2021/04/08 02:12:56;;;;;;;5.63;1.20;;;24.90;99.90;;;;;;5047280;28;20191;-72
2021/04/08 02:15:25;;;;;;;6.93;1.10;;;24.60;99.90;;;;;;5054676;28;20183;-71
2021/04/08 02:17:59;;;;;;;3.97;1.10;;;24.30;99.90;;;;;;5054121;28;20184;-71
2021/04/08 02:20:32;;;;;;;5.63;1.50;;;24.20;99.90;;;;;;5041602;28;20540;-70
2021/04/08 02:23:02;;;;;;;6.07;1.30;;;24.10;99.90;;;;;;5052378;28;20183;-70
2021/04/08 02:25:38;;;;;;;7.23;1.03;;;23.90;99.90;;;;;;5049963;28;20259;-71
2021/04/08 02:28:06;;;;;;;4.37;1.20;;;23.90;99.90;;;;;;5049001;28;20175;-70
2021/04/08 02:30:46;;;;;;;6.07;1.10;;;23.90;99.90;;;;;;5049524;28;20221;-71
2021/04/08 02:33:24;;;;;;;4.27;0.93;;;23.90;99.90;;;;;;5049744;28;20176;-70
2021/04/08 02:35:53;;;;;;;7.70;1.00;;;24.00;99.90;;;;;;5052169;28;20195;-71
2021/04/08 02:38:25;;;;;;;3.77;0.80;;;24.10;99.90;;;;;;5051776;28;20184;-71
2021/04/08 02:40:53;;;;;;;2.50;0.70;;;24.30;99.90;;;;;;5045407;28;20180;-70
2021/04/08 02:43:21;;;;;;;1.70;0.67;;;24.80;99.90;;;;;;5044481;28;20203;-71
2021/04/08 02:45:48;;;;;;;3.37;1.00;;;25.10;99.90;;;;;;5051851;28;20235;-71
2021/04/08 02:48:18;;;;;;;3.40;0.60;;;25.30;99.90;;;;;;5050283;28;20194;-70
2021/04/08 02:50:54;;;;;;;6.43;1.27;;;25.90;99.90;;;;;;5047691;28;20578;-70
2021/04/08 02:53:42;;;;;;;3.87;0.80;;;26.30;99.90;;;;;;5047449;28;20202;-70
2021/04/08 02:56:19;;;;;;;4.07;0.80;;;26.00;99.90;;;;;;5049432;28;20184;-70
2021/04/08 02:58:47;;;;;;;3.50;0.77;;;25.40;99.90;;;;;;5044410;28;20190;-70
2021/04/08 03:01:19;;;;;;;4.53;0.80;;;25.80;99.90;;;;;;5046400;28;20188;-71
2021/04/08 03:03:55;;;;;;;4.87;1.10;;;26.40;99.90;;;;;;5045181;28;20187;-68
2021/04/08 03:06:24;;;;;;;3.77;0.80;;;25.90;99.90;;;;;;5048923;28;20195;-69
2021/04/08 03:08:56;;;;;;;5.60;0.80;;;25.90;99.90;;;;;;5047663;28;20237;-69
2021/04/08 03:11:26;;;;;;;4.27;0.80;;;26.20;99.90;;;;;;5043289;28;20227;-71
2021/04/08 03:13:58;;;;;;;4.00;1.33;;;26.60;99.90;;;;;;5046325;28;20192;-70
2021/04/08 03:16:30;;;;;;;1.53;0.70;;;26.90;99.90;;;;;;5045727;28;20227;-70
2021/04/08 03:18:59;;;;;;;3.80;0.60;;;27.60;99.90;;;;;;5024607;28;20208;-70
2021/04/08 03:21:28;;;;;;;2.83;0.80;;;27.60;99.90;;;;;;5048580;28;20545;-70
2021/04/08 03:23:58;;;;;;;2.90;0.70;;;27.60;99.90;;;;;;5042261;28;20276;-71
2021/04/08 03:26:27;;;;;;;4.40;1.00;;;27.60;99.90;;;;;;5038711;28;20183;-72
2021/04/08 03:28:56;;;;;;;2.50;0.83;;;27.70;99.90;;;;;;5050891;28;20548;-72
2021/04/08 03:31:23;;;;;;;1.40;0.80;;;27.60;99.90;;;;;;5044926;28;20223;-72
2021/04/08 03:33:53;;;;;;;3.53;0.80;;;27.80;99.90;;;;;;5042602;28;20199;-71
2021/04/08 03:36:22;;;;;;;3.30;0.80;;;27.90;99.90;;;;;;5050996;28;20241;-71
2021/04/08 03:38:49;;;;;;;2.37;0.70;;;27.50;99.90;;;;;;5049495;28;20180;-71
2021/04/08 03:41:19;;;;;;;1.27;0.67;;;28.00;99.90;;;;;;5051522;28;20183;-69
2021/04/08 03:43:47;;;;;;;2.07;0.47;;;28.00;99.90;;;;;;5046426;28;20184;-71
2021/04/08 03:46:15;;;;;;;3.67;1.00;;;28.00;99.90;;;;;;5043531;28;20279;-70
2021/04/08 03:48:45;;;;;;;1.50;0.60;;;28.40;99.90;;;;;;5052387;28;20184;-69
2021/04/08 03:51:13;;;;;;;1.73;0.83;;;29.10;99.70;;;;;;5051418;28;20294;-70
2021/04/08 03:53:42;;;;;;;3.63;0.77;;;29.40;99.30;;;;;;5052403;28;20246;-70
2021/04/08 03:56:10;;;;;;;2.38;0.65;;;29.80;99.30;;;;;;5053045;28;20180;-72
2021/04/08 03:58:39;;;;;;;3.00;0.73;;;30.30;98.10;;;;;;5052348;28;20175;-70
2021/04/08 04:01:08;;;;;;;4.10;0.53;;;29.20;98.70;;;;;;5053157;28;20660;-70
2021/04/08 04:03:37;;;;;;;1.40;0.70;;;30.00;98.10;;;;;;5052159;28;20503;-71
2021/04/08 04:06:09;;;;;;;4.25;0.90;;;30.30;97.70;;;;;;5048706;28;20184;-70
2021/04/08 04:08:38;;;;;;;2.85;0.77;;;30.30;98.00;;;;;;5052588;28;20589;-70
2021/04/08 04:11:06;;;;;;;2.97;0.80;;;29.60;98.50;;;;;;5040910;28;20269;-69
2021/04/08 04:13:34;;;;;;;3.20;0.95;;;30.20;97.60;;;;;;5052332;28;20183;-68
2021/04/08 04:16:02;;;;;;;2.60;0.82;;;30.40;97.80;;;;;;5050433;28;20417;-69
2021/04/08 04:18:29;;;;;;;3.78;0.70;;;30.20;97.40;;;;;;5052505;28;20180;-69
2021/04/08 04:20:57;;;;;;;4.88;1.30;;;30.00;97.40;;;;;;5052141;28;20664;-71
2021/04/08 04:23:24;;;;;;;2.45;0.77;;;30.20;98.40;;;;;;5052797;28;20180;-70
2021/04/08 04:25:52;;;;;;;2.80;0.98;;;30.10;98.40;;;;;;5052179;28;20701;-69
2021/04/08 04:28:19;;;;;;;2.47;0.75;;;30.00;98.20;;;;;;5051661;28;20187;-69
2021/04/08 04:30:47;;;;;;;4.05;0.63;;;29.80;98.80;;;;;;5051872;28;20222;-69
2021/04/08 04:33:17;;;;;;;1.20;0.50;;;30.00;98.80;;;;;;5052129;28;20215;-70
2021/04/08 04:35:44;;;;;;;5.15;0.73;;;29.90;97.90;;;;;;5051520;28;20194;-69
2021/04/08 04:38:11;;;;;;;3.72;0.63;;;29.70;99.00;;;;;;5052331;28;20190;-71
2021/04/08 04:40:39;;;;;;;2.75;0.93;;;29.50;98.80;;;;;;5052032;28;20180;-70
2021/04/08 04:43:06;;;;;;;4.53;0.98;;;29.00;98.90;;;;;;5038121;28;20203;-70
2021/04/08 04:45:33;;;;;;;5.82;1.00;;;28.80;99.10;;;;;;5051740;28;20224;-71
2021/04/08 04:48:01;;;;;;;4.70;0.88;;;28.80;99.70;;;;;;5052253;28;20234;-69
2021/04/08 04:50:28;;;;;;;3.17;0.77;;;29.30;99.20;;;;;;5051504;28;20223;-68
2021/04/08 04:52:55;;;;;;;2.20;1.13;;;29.40;98.90;;;;;;5052035;28;20271;-69
2021/04/08 04:55:23;;;;;;;1.40;0.70;;;30.50;98.00;;;;;;5051290;28;20184;-68
2021/04/08 04:57:50;;;;;;;5.47;0.88;;;30.00;98.00;;;;;;5049357;28;20175;-72
2021/04/08 05:00:18;;;;;;;2.78;0.60;;;29.70;98.10;;;;;;5057843;28;20179;-71
2021/04/08 05:02:46;;;;;;;3.45;0.85;;;29.50;97.80;;;;;;5058711;28;20237;-71
2021/04/08 05:05:14;;;;;;;2.77;0.67;;;28.70;98.90;;;;;;5057555;28;20187;-70
2021/04/08 05:07:41;;;;;;;2.20;0.60;;;29.00;98.90;;;;;;5058726;28;20809;-71
2021/04/08 05:10:10;;;;;;;3.08;0.68;;;29.70;97.80;;;;;;5058472;28;20211;-71
2021/04/08 05:12:38;;;;;;;3.92;0.98;;;29.00;98.10;;;;;;5058112;28;20214;-72
2021/04/08 05:15:06;;;;;;;3.37;0.47;;;29.10;98.20;;;;;;5059452;28;20180;-73
2021/04/08 05:17:34;;;;;;;3.50;0.60;;;29.30;98.00;;;;;;5057527;28;20212;-70
2021/04/08 05:20:02;;;;;;;4.40;0.75;;;29.30;97.80;;;;;;5058267;28;20555;-70
2021/04/08 05:22:29;;;;;;;4.53;0.80;;;29.10;98.00;;;;;;5057951;28;20183;-71
2021/04/08 05:24:56;;;;;;;2.25;1.20;;;28.90;98.00;;;;;;5058648;28;20258;-71
2021/04/08 05:27:24;;;;;;;2.38;0.63;;;29.20;97.70;;;;;;5058597;28;20167;-73
2021/04/08 05:29:51;;;;;;;3.97;0.85;;;29.30;96.90;;;;;;5058043;28;20547;-70
2021/04/08 05:32:18;;;;;;;3.30;0.90;;;28.60;97.40;;;;;;5058274;28;20179;-71
2021/04/08 05:34:46;;;;;;;3.60;0.50;;;28.20;97.60;;;;;;5058767;28;20187;-69
2021/04/08 05:37:13;;;;;;;3.28;0.60;;;28.30;97.30;;;;;;5058119;28;20642;-69
2021/04/08 05:39:40;;;;;;;1.33;0.50;;;28.10;96.10;;;;;;5058142;28;20180;-71
2021/04/08 05:42:08;;;;;;;3.07;0.87;;;27.90;96.40;;;;;;5058119;28;20225;-69
2021/04/08 05:44:35;;;;;;;1.70;0.60;;;28.20;95.90;;;;;;5056621;28;20176;-70
2021/04/08 05:47:03;;;;;;;3.40;0.63;;;28.40;96.10;;;;;;5043805;28;20183;-70
2021/04/08 05:49:30;;;;;;;5.13;0.90;;;28.50;95.80;;;;;;5048566;28;20225;-70
2021/04/08 05:51:57;;;;;;;1.07;0.57;;;28.40;96.90;;;;;;5056505;28;20609;-70
2021/04/08 05:54:25;;;;;;;2.60;0.60;;;28.80;96.30;;;;;;5057999;28;20172;-70
2021/04/08 05:56:52;;;;;;;3.83;2.07;;;28.50;95.50;;;;;;5058597;28;20172;-70
2021/04/08 05:59:19;;;;;;;7.87;5.40;;;29.20;94.30;;;;;;5058425;28;20202;-69
2021/04/08 06:01:47;;;;;;;4.20;0.57;;;29.00;94.40;;;;;;5057601;28;20259;-69
2021/04/08 06:04:14;;;;;;;1.73;0.50;;;28.90;93.40;;;;;;5058510;28;20184;-70
2021/04/08 06:06:41;;;;;;;2.03;0.70;;;28.70;92.70;;;;;;5058638;28;20171;-69
2021/04/08 06:09:08;;;;;;;1.90;0.40;;;28.70;92.70;;;;;;5057953;28;20183;-70
2021/04/08 06:11:36;;;;;;;1.70;0.60;;;28.40;92.50;;;;;;5053879;28;20238;-68
2021/04/08 06:14:04;;;;;;;2.85;0.80;;;28.50;93.50;;;;;;5044422;28;20192;-70
2021/04/08 06:16:31;;;;;;;1.98;0.70;;;28.80;93.30;;;;;;5048669;28;20200;-69
2021/04/08 06:18:58;;;;;;;3.83;0.88;;;29.20;93.80;;;;;;5051636;28;20267;-68
2021/04/08 06:21:26;;;;;;;3.08;0.75;;;29.80;94.00;;;;;;5051756;28;20265;-69
2021/04/08 06:23:54;;;;;;;2.30;0.63;;;29.70;94.00;;;;;;5044499;28;20180;-69
2021/04/08 06:26:21;;;;;;;3.15;0.80;;;29.60;94.20;;;;;;5041017;28;20192;-68
2021/04/08 06:28:49;;;;;;;2.20;0.63;;;29.60;94.70;;;;;;5050810;28;20183;-69
2021/04/08 06:31:16;;;;;;;1.30;0.70;;;29.10;95.30;;;;;;5041586;28;20281;-71
2021/04/08 06:33:45;;;;;;;1.55;0.50;;;28.90;95.80;;;;;;5043488;28;20188;-70
2021/04/08 06:36:12;;;;;;;1.90;0.80;;;28.70;95.30;;;;;;5046151;28;20237;-70
2021/04/08 06:38:39;;;;;;;2.07;0.60;;;28.40;95.40;;;;;;5053271;28;20266;-70
2021/04/08 06:41:07;;;;;;;3.30;0.77;;;28.00;96.90;;;;;;5045556;28;20183;-70
2021/04/08 06:43:40;;;;;;;4.30;0.80;;;28.30;97.30;;;;;;5054238;28;20265;-68
2021/04/08 06:46:09;;;;;;;3.60;0.70;;;28.30;97.70;;;;;;5054046;28;20228;-69
2021/04/08 06:48:45;;;;;;;3.33;0.93;;;27.90;98.30;;;;;;5053506;28;20180;-70
2021/04/08 06:51:18;;;;;;;4.40;1.30;;;27.90;97.60;;;;;;5047692;28;20245;-70
2021/04/08 06:53:48;;;;;;;4.10;1.70;;;27.90;97.20;;;;;;5050594;28;20195;-69
2021/04/08 06:56:17;;;;;;;3.00;1.90;;;27.90;98.10;;;;;;5047044;28;20638;-70
2021/04/08 06:58:45;;;;;;;6.87;1.20;;;27.40;98.50;;;;;;5050351;28;20669;-70
2021/04/08 07:01:13;;;;;;;4.03;0.80;;;27.40;99.30;;;;;;5046044;28;21459;-69
2021/04/08 07:03:41;;;;;;;3.33;0.73;;;27.20;99.20;;;;;;5049353;28;20191;-68
2021/04/08 07:06:08;;;;;;;5.43;0.90;;;26.80;99.50;;;;;;5043235;28;20266;-68
2021/04/08 07:08:35;;;;;;;2.80;0.90;;;26.30;99.90;;;;;;5043457;28;20188;-68
2021/04/08 07:11:03;;;;;;;2.70;0.90;;;25.80;99.90;;;;;;5049131;28;20204;-68
2021/04/08 07:13:33;;;;;;;2.83;0.53;;;25.50;99.90;;;;;;5044978;28;20176;-68
2021/04/08 07:16:02;;;;;;;2.30;0.67;;;25.40;99.90;;;;;;5047439;28;20199;-68
2021/04/08 07:18:29;;;;;;;2.90;0.93;;;25.10;99.90;;;;;;5046110;28;20582;-69
2021/04/08 07:20:59;;;;;;;3.40;0.90;;;24.90;99.90;;;;;;5040941;28;20202;-69
2021/04/08 07:23:26;;;;;;;6.73;3.83;;;24.70;99.90;;;;;;5043754;28;20246;-69
2021/04/08 07:26:07;;;;;;;5.30;4.33;;;24.40;99.90;;;;;;5052203;28;20287;-69
2021/04/08 07:28:35;;;;;;;3.13;1.17;;;24.10;99.90;;;;;;5044743;28;20180;-69
2021/04/08 07:31:22;;;;;;;2.30;0.83;;;23.80;99.90;;;;;;5043692;28;20215;-69
2021/04/08 07:33:51;;;;;;;2.23;1.33;;;23.80;99.90;;;;;;5047233;28;20176;-69
2021/04/08 07:36:31;;;;;;;5.17;1.10;;;23.70;99.90;;;;;;5042261;28;20188;-70
2021/04/08 07:38:59;;;;;;;3.47;0.90;;;23.70;99.90;;;;;;5049382;28;20192;-69
2021/04/08 07:41:33;;;;;;;3.80;0.90;;;23.70;99.90;;;;;;5043037;28;20179;-69
2021/04/08 07:44:04;;;;;;;4.10;0.97;;;23.70;99.90;;;;;;5044887;28;20195;-69
2021/04/08 07:46:35;;;;;;;3.73;1.10;;;23.70;99.90;;;;;;5051476;28;20235;-69
2021/04/08 07:49:03;;;;;;;6.00;2.40;;;23.50;99.90;;;;;;5043909;28;20631;-68
2021/04/08 07:51:34;;;;;;;7.67;5.93;;;23.50;99.90;;;;;;5048987;28;20704;-69
2021/04/08 07:54:14;;;;;;;6.13;3.00;;;23.30;99.90;;;;;;5048680;28;20215;-69
2021/04/08 07:56:42;;;;;;;5.33;1.03;;;23.20;99.90;;;;;;5046173;28;20223;-69
2021/04/08 07:59:23;;;;;;;5.50;1.30;;;23.10;99.90;;;;;;5047891;28;20176;-69
2021/04/08 08:02:00;;;;;;;4.73;1.00;;;23.00;99.90;;;;;;5051084;28;20191;-68
2021/04/08 08:04:28;;;;;;;6.87;1.17;;;22.90;99.90;;;;;;5040326;28;20234;-69
2021/04/08 08:06:57;;;;;;;4.83;2.03;;;22.80;99.90;;;;;;5050153;28;20654;-69
2021/04/08 08:09:30;;;;;;;8.77;2.87;;;22.80;99.90;;;;;;5050266;28;20183;-69
2021/04/08 08:12:10;;;;;;;10.53;4.27;;;22.70;99.90;;;;;;5052049;28;20302;-69
2021/04/08 08:14:42;;;;;;;6.60;2.90;;;22.70;99.90;;;;;;5052249;28;20187;-69
2021/04/08 08:17:14;;;;;;;4.17;1.10;;;22.60;99.90;;;;;;5052635;28;20184;-70
2021/04/08 08:19:44;;;;;;;3.40;0.87;;;22.60;99.90;;;;;;5052950;28;20519;-71
2021/04/08 08:22:20;;;;;;;4.97;1.07;;;22.60;99.90;;;;;;5052035;28;20562;-70
2021/04/08 08:24:59;;;;;;;1.53;0.70;;;22.50;99.90;;;;;;5051738;28;20198;-70
2021/04/08 08:27:47;;;;;;;6.43;1.00;;;22.60;99.90;;;;;;5052670;28;20179;-69
2021/04/08 08:30:18;;;;;;;3.70;1.10;;;22.50;99.90;;;;;;5034407;28;20559;-69
2021/04/08 08:33:06;;;;;;;3.47;0.80;;;22.50;99.90;;;;;;5046967;28;20179;-70
2021/04/08 08:35:34;;;;;;;7.77;0.80;;;22.40;99.90;;;;;;5040814;28;20672;-70
2021/04/08 08:38:19;;;;;;;1.97;0.60;;;22.40;99.90;;;;;;5052758;28;20519;-69
2021/04/08 08:40:50;;;;;;;2.00;0.80;;;22.40;99.90;;;;;;5051063;28;20180;-69
2021/04/08 08:43:18;;;;;;;2.50;0.67;;;22.30;99.90;;;;;;5052284;28;20215;-68
2021/04/08 08:45:45;;;;;;;4.57;0.70;;;22.30;99.90;;;;;;5052108;28;20230;-69
2021/04/08 08:48:19;;;;;;;3.00;0.80;;;22.30;99.90;;;;;;5052018;28;20236;-68
2021/04/08 08:50:51;;;;;;;5.00;1.20;;;22.20;99.90;;;;;;5051702;28;20282;-69
2021/04/08 08:53:19;;;;;;;2.43;0.80;;;22.20;99.90;;;;;;5051940;28;20612;-69
2021/04/08 08:55:47;;;;;;;4.10;1.13;;;22.20;99.90;;;;;;5051744;28;20175;-68
2021/04/08 08:58:14;;;;;;;6.23;1.07;;;22.20;99.90;;;;;;5052231;28;20241;-69
2021/04/08 09:00:42;;;;;;;2.43;0.90;;;22.20;99.90;;;;;;5052352;28;20180;-68
2021/04/08 09:03:09;;;;;;;8.93;1.47;;;22.20;99.90;;;;;;5051186;28;20214;-69
2021/04/08 09:05:37;;;;;;;3.93;1.00;;;22.10;99.90;;;;;;5052350;28;20172;-68
2021/04/08 09:08:12;;;;;;;5.20;0.90;;;22.20;99.90;;;;;;5051075;28;20176;-70
2021/04/08 09:10:42;;;;;;;4.23;1.27;;;22.20;99.90;;;;;;5051115;28;20222;-69
2021/04/08 09:13:10;;;;;;;3.43;1.13;;;22.10;99.90;;;;;;5052082;28;20267;-68
2021/04/08 09:15:38;;;;;;;4.07;1.20;;;22.10;99.90;;;;;;5051980;28;20203;-69
2021/04/08 09:18:08;;;;;;;5.37;1.23;;;22.10;99.90;;;;;;5051340;28;20180;-69
2021/04/08 09:20:37;;;;;;;16.33;9.20;;;22.00;99.90;;;;;;5051610;28;20681;-69
2021/04/08 09:23:12;;;;;;;12.63;8.13;;;22.00;99.90;;;;;;5051199;28;22001;-69
2021/04/08 09:26:01;;;;;;;3.87;1.57;;;22.00;99.90;;;;;;5044724;28;20184;-69
2021/04/08 09:28:40;;;;;;;4.03;1.43;;;22.00;99.90;;;;;;5046788;28;20223;-69
2021/04/08 09:31:20;;;;;;;7.07;1.60;;;21.90;99.90;;;;;;5051573;28;20200;-70
2021/04/08 09:33:50;;;;;;;8.83;1.70;;;21.80;99.90;;;;;;5026759;28;20577;-69
2021/04/08 09:36:21;;;;;;;10.13;1.50;;;21.80;99.90;;;;;;5050212;28;20254;-71
2021/04/08 09:39:08;;;;;;;5.33;1.60;;;21.70;99.90;;;;;;5050293;28;20230;-70
2021/04/08 09:41:57;;;;;;;7.63;1.90;;;21.70;99.90;;;;;;5036078;28;20176;-69
2021/04/08 09:44:27;;;;;;;7.07;1.87;;;21.70;99.90;;;;;;5049897;28;20191;-69
2021/04/08 09:47:02;;;;;;;5.77;2.13;;;21.70;99.90;;;;;;5052428;28;20657;-69
2021/04/08 09:49:41;;;;;;;5.20;2.00;;;21.70;99.90;;;;;;5055376;28;20179;-69
2021/04/08 09:52:10;;;;;;;9.30;1.73;;;21.60;99.90;;;;;;5055181;28;20212;-68
2021/04/08 09:54:46;;;;;;;8.67;2.10;;;21.60;99.90;;;;;;5055005;28;20198;-68
2021/04/08 09:57:33;;;;;;;13.97;8.83;;;21.60;99.90;;;;;;5055569;28;20242;-71
2021/04/08 10:00:01;;;;;;;16.70;13.17;;;21.50;99.90;;;;;;5055338;28;20196;-68
2021/04/08 10:02:29;;;;;;;4.17;1.80;;;21.50;99.90;;;;;;5052561;28;20172;-69
2021/04/08 10:05:10;;;;;;;8.97;1.57;;;21.40;99.90;;;;;;5051308;28;20259;-69
2021/04/08 10:07:57;;;;;;;6.23;1.57;;;21.50;99.90;;;;;;5048607;28;20180;-70
2021/04/08 10:10:38;;;;;;;4.57;1.97;;;21.40;99.90;;;;;;5050705;28;20682;-68
2021/04/08 10:13:30;;;;;;;3.50;1.83;;;21.40;99.90;;;;;;5055176;28;20642;-68
2021/04/08 10:16:00;;;;;;;12.73;6.80;;;21.30;99.90;;;;;;5053642;28;20187;-68
2021/04/08 10:18:29;;;;;;;15.93;10.53;;;21.40;99.90;;;;;;5050167;28;20180;-69
2021/04/08 10:21:02;;;;;;;13.23;2.60;;;21.30;99.90;;;;;;5051784;28;20183;-69
2021/04/08 10:23:38;;;;;;;5.87;2.43;;;21.20;99.90;;;;;;5054973;28;20176;-70
2021/04/08 10:26:08;;;;;;;9.00;2.20;;;21.30;99.90;;;;;;5041305;28;20207;-69
2021/04/08 10:28:48;;;;;;;5.43;2.30;;;21.30;99.90;;;;;;5052697;28;20213;-69
2021/04/08 10:31:27;;;;;;;6.13;1.90;;;21.20;99.90;;;;;;5053288;28;20215;-69
2021/04/08 10:33:55;;;;;;;9.43;1.83;;;21.20;99.90;;;;;;5053561;28;20177;-69
2021/04/08 10:36:34;;;;;;;4.43;1.67;;;21.10;99.90;;;;;;5051885;28;20188;-68
2021/04/08 10:39:04;;;;;;;9.70;2.20;;;21.10;99.90;;;;;;5044206;28;20251;-68
2021/04/08 10:41:32;;;;;;;8.17;2.40;;;21.00;99.90;;;;;;5053884;28;20653;-68
2021/04/08 10:44:20;;;;;;;5.83;2.10;;;21.00;99.90;;;;;;5052683;28;20184;-69
2021/04/08 10:46:48;;;;;;;12.63;1.90;;;20.90;99.90;;;;;;5059794;28;20310;-68
2021/04/08 10:49:30;;;;;;;10.93;2.03;;;20.90;99.90;;;;;;5048330;28;20238;-69
2021/04/08 10:52:02;;;;;;;12.17;2.77;;;20.90;99.90;;;;;;5051630;28;20243;-69
2021/04/08 10:54:33;;;;;;;2.90;1.47;;;20.80;99.90;;;;;;5052772;28;20184;-68
2021/04/08 10:57:01;;;;;;;7.20;1.50;;;20.80;99.90;;;;;;5043630;28;20669;-68
2021/04/08 10:59:30;;;;;;;8.97;1.80;;;20.80;99.90;;;;;;5054575;28;20178;-69
2021/04/08 11:02:01;;;;;;;8.87;1.70;;;20.80;99.90;;;;;;5053608;28;20180;-69
2021/04/08 11:04:35;;;;;;;10.13;2.00;;;20.80;99.90;;;;;;5046238;28;20266;-69
2021/04/08 11:07:02;;;;;;;8.57;1.90;;;20.70;99.90;;;;;;5049335;28;20191;-69
2021/04/08 11:09:30;;;;;;;9.03;2.00;;;20.70;99.90;;;;;;5054104;28;20528;-69
2021/04/08 11:11:57;;;;;;;9.43;2.00;;;20.70;99.90;;;;;;5054070;28;20230;-69
2021/04/08 11:14:31;;;;;;;11.73;2.00;;;20.70;99.90;;;;;;5053880;28;20579;-69
2021/04/08 11:17:00;;;;;;;9.87;2.77;;;20.70;99.90;;;;;;5040681;28;20187;-70
2021/04/08 11:19:28;;;;;;;9.33;2.40;;;20.70;99.90;;;;;;5047885;28;20535;-70
2021/04/08 11:21:55;;;;;;;6.00;1.80;;;20.60;99.90;;;;;;5048689;28;20211;-69
2021/04/08 11:24:23;;;;;;;6.03;1.70;;;20.60;99.90;;;;;;5044983;28;20171;-70
2021/04/08 11:26:52;;;;;;;12.30;2.53;;;20.60;99.90;;;;;;5048143;28;20543;-69
2021/04/08 11:29:27;;;;;;;12.53;2.10;;;20.50;99.90;;;;;;5053805;28;20179;-69
2021/04/08 11:32:06;;;;;;;7.10;1.87;;;20.50;99.90;;;;;;5046186;28;20203;-69
2021/04/08 11:34:43;;;;;;;5.23;2.07;;;20.50;99.90;;;;;;5047327;28;20176;-69
2021/04/08 11:37:12;;;;;;;9.03;2.17;;;20.50;99.90;;;;;;5052428;28;20253;-68
2021/04/08 11:39:40;;;;;;;13.53;1.83;;;20.40;99.90;;;;;;5050681;28;20191;-69
2021/04/08 11:42:15;;;;;;;6.80;1.63;;;20.30;99.90;;;;;;5058983;28;20229;-70
2021/04/08 11:44:43;;;;;;;6.67;1.73;;;20.30;99.90;;;;;;5049667;28;20202;-69
2021/04/08 11:47:23;;;;;;;6.93;1.70;;;20.30;99.90;;;;;;5050013;28;20190;-70
2021/04/08 11:49:55;;;;;;;4.93;1.70;;;20.20;99.90;;;;;;5042731;28;20208;-69
2021/04/08 11:52:27;;;;;;;7.33;1.97;;;20.20;99.90;;;;;;5044623;28;20219;-69
2021/04/08 11:55:08;;;;;;;9.37;1.97;;;20.10;99.90;;;;;;5049182;28;20642;-69
2021/04/08 11:57:36;;;;;;;8.97;2.00;;;20.10;99.90;;;;;;5048789;28;20208;-69
2021/04/08 12:00:14;;;;;;;5.43;1.20;;;20.10;99.90;;;;;;5042622;28;20259;-69
2021/04/08 12:02:42;;;;;;;10.10;1.53;;;20.10;99.90;;;;;;5052058;28;20221;-69
2021/04/08 12:05:13;;;;;;;7.57;1.73;;;20.00;99.90;;;;;;5051586;28;20262;-70
2021/04/08 12:07:45;;;;;;;9.10;1.87;;;20.10;99.90;;;;;;5049930;28;20188;-69
2021/04/08 12:10:30;;;;;;;4.17;1.50;;;20.00;99.90;;;;;;5044412;28;20172;-70
2021/04/08 12:13:02;;;;;;;7.47;1.73;;;20.00;99.90;;;;;;5052166;28;20214;-70
2021/04/08 12:15:41;;;;;;;9.60;1.97;;;20.00;99.90;;;;;;5051308;28;20168;-69
2021/04/08 12:18:20;;;;;;;14.67;1.60;;;20.00;99.90;;;;;;5051931;28;20202;-69
2021/04/08 12:20:49;;;;;;;8.03;2.10;;;20.00;99.90;;;;;;5039830;28;20179;-69
2021/04/08 12:23:33;;;;;;;6.90;1.50;;;20.00;99.90;;;;;;5051082;28;20207;-69
2021/04/08 12:26:01;;;;;;;5.53;1.43;;;20.00;99.90;;;;;;5050538;28;20180;-70
2021/04/08 12:28:29;;;;;;;9.90;2.37;;;20.00;99.90;;;;;;5046121;28;20179;-70
2021/04/08 12:31:02;;;;;;;10.10;2.33;;;19.90;99.90;;;;;;5052910;28;20222;-69
2021/04/08 12:33:35;;;;;;;12.20;1.90;;;19.90;99.90;;;;;;5038925;28;20215;-70
2021/04/08 12:36:08;;;;;;;7.83;1.60;;;19.90;99.90;;;;;;5052891;28;20263;-69
2021/04/08 12:38:36;;;;;;;7.50;1.40;;;19.90;99.90;;;;;;5038994;28;20180;-70
2021/04/08 12:41:05;;;;;;;6.40;1.50;;;19.80;99.90;;;;;;5052444;28;20634;-69
2021/04/08 12:43:33;;;;;;;6.70;1.67;;;19.90;99.90;;;;;;5052455;28;20176;-69
2021/04/08 12:46:01;;;;;;;7.67;1.30;;;19.80;99.90;;;;;;5051452;28;20231;-70
2021/04/08 12:48:29;;;;;;;4.43;1.17;;;19.70;99.90;;;;;;5050403;28;20237;-69
2021/04/08 12:50:58;;;;;;;2.90;1.50;;;19.70;99.90;;;;;;5052558;28;20204;-69
2021/04/08 12:53:26;;;;;;;5.03;1.30;;;19.70;99.90;;;;;;5047180;28;20673;-69
2021/04/08 12:55:55;;;;;;;3.47;1.57;;;19.70;99.90;;;;;;5052033;28;20206;-69
2021/04/08 12:58:23;;;;;;;4.37;1.50;;;19.70;99.90;;;;;;5051944;28;20642;-69
2021/04/08 13:00:51;;;;;;;5.00;1.30;;;19.70;99.90;;;;;;5052528;28;20258;-69
2021/04/08 13:03:19;;;;;;;5.70;1.77;;;19.70;99.90;;;;;;5050749;28;20176;-69
2021/04/08 13:05:47;;;;;;;9.23;1.40;;;19.70;99.90;;;;;;5047417;28;20180;-70